sensor_id;sensor_type;location;lat;lon;timestamp;pressure;altitude;pressure_sealevel;temperature;humidity
29045;BME280;16133;49.486;12.176;2024-02-28T00:01:37;97268.03;;;5.03;100.00
29045;BME280;16133;49.486;12.176;2024-02-28T00:04:03;97270.97;;;5.00;100.00
29045;BME280;16133;49.486;12.176;2024-02-28T00:06:29;97266.31;;;4.94;100.00
29045;BME280;16133;49.486;12.176;2024-02-28T00:08:54;97271.56;;;4.94;100.00
29045;BME280;16133;49.486;12.176;2024-02-28T00:11:20;97267.50;;;5.00;100.00
29045;BME280;16133;49.486;12.176;2024-02-28T00:13:45;97268.88;;;5.04;100.00
29045;BME280;16133;49.486;12.176;2024-02-28T00:16:11;97269.91;;;4.93;100.00
29045;BME280;16133;49.486;12.176;2024-02-28T00:18:37;97262.69;;;4.95;100.00
29045;BME280;16133;49.486;12.176;2024-02-28T00:21:02;97265.22;;;4.87;100.00
29045;BME280;16133;49.486;12.176;2024-02-28T00:23:29;97268.84;;;4.86;100.00
29045;BME280;16133;49.486;12.176;2024-02-28T00:25:54;97270.78;;;4.84;100.00
29045;BME280;16133;49.486;12.176;2024-02-28T00:28:19;97266.78;;;4.80;100.00
29045;BME280;16133;49.486;12.176;2024-02-28T00:30:45;97270.25;;;4.80;100.00
29045;BME280;16133;49.486;12.176;2024-02-28T00:33:10;97268.06;;;4.76;100.00
29045;BME280;16133;49.486;12.176;2024-02-28T00:35:35;97269.50;;;4.70;100.00
29045;BME280;16133;49.486;12.176;2024-02-28T00:38:01;97283.06;;;4.66;100.00
29045;BME280;16133;49.486;12.176;2024-02-28T00:40:27;97275.56;;;4.71;100.00
29045;BME280;16133;49.486;12.176;2024-02-28T00:42:53;97279.00;;;4.71;100.00
29045;BME280;16133;49.486;12.176;2024-02-28T00:45:19;97274.34;;;4.65;100.00
29045;BME280;16133;49.486;12.176;2024-02-28T00:47:44;97283.91;;;4.57;100.00
29045;BME280;16133;49.486;12.176;2024-02-28T00:50:09;97282.03;;;4.49;100.00
29045;BME280;16133;49.486;12.176;2024-02-28T00:52:36;97282.56;;;4.53;100.00
29045;BME280;16133;49.486;12.176;2024-02-28T00:55:02;97278.09;;;4.63;100.00
29045;BME280;16133;49.486;12.176;2024-02-28T00:57:28;97280.63;;;4.55;100.00
29045;BME280;16133;49.486;12.176;2024-02-28T00:59:53;97282.75;;;4.42;100.00
29045;BME280;16133;49.486;12.176;2024-02-28T01:02:20;97292.16;;;4.44;100.00
29045;BME280;16133;49.486;12.176;2024-02-28T01:04:45;97295.88;;;4.42;100.00
29045;BME280;16133;49.486;12.176;2024-02-28T01:07:11;97292.06;;;4.26;100.00
29045;BME280;16133;49.486;12.176;2024-02-28T01:09:36;97291.06;;;4.37;100.00
29045;BME280;16133;49.486;12.176;2024-02-28T01:12:02;97291.31;;;4.44;100.00
29045;BME280;16133;49.486;12.176;2024-02-28T01:14:27;97301.66;;;4.45;100.00
29045;BME280;16133;49.486;12.176;2024-02-28T01:16:52;97298.38;;;4.33;100.00
29045;BME280;16133;49.486;12.176;2024-02-28T01:19:18;97300.16;;;4.43;100.00
29045;BME280;16133;49.486;12.176;2024-02-28T01:21:43;97295.03;;;4.41;100.00
29045;BME280;16133;49.486;12.176;2024-02-28T01:24:09;97306.97;;;4.36;100.00
29045;BME280;16133;49.486;12.176;2024-02-28T01:26:34;97308.22;;;4.31;100.00
29045;BME280;16133;49.486;12.176;2024-02-28T01:28:59;97306.00;;;4.37;100.00
29045;BME280;16133;49.486;12.176;2024-02-28T01:31:25;97310.16;;;4.29;100.00
29045;BME280;16133;49.486;12.176;2024-02-28T01:33:50;97304.91;;;4.29;100.00
29045;BME280;16133;49.486;12.176;2024-02-28T01:36:15;97314.16;;;4.33;100.00
29045;BME280;16133;49.486;12.176;2024-02-28T01:38:41;97308.53;;;4.28;100.00
29045;BME280;16133;49.486;12.176;2024-02-28T01:41:06;97304.22;;;4.27;100.00
29045;BME280;16133;49.486;12.176;2024-02-28T01:43:32;97315.28;;;4.31;100.00
29045;BME280;16133;49.486;12.176;2024-02-28T01:46:00;97306.81;;;4.37;100.00
29045;BME280;16133;49.486;12.176;2024-02-28T01:48:26;97313.59;;;4.40;100.00
29045;BME280;16133;49.486;12.176;2024-02-28T01:50:52;97311.72;;;4.59;100.00
29045;BME280;16133;49.486;12.176;2024-02-28T01:53:17;97314.38;;;4.50;100.00
29045;BME280;16133;49.486;12.176;2024-02-28T01:55:43;97312.34;;;4.44;100.00
29045;BME280;16133;49.486;12.176;2024-02-28T01:58:08;97316.59;;;4.45;100.00
29045;BME280;16133;49.486;12.176;2024-02-28T02:00:34;97312.34;;;4.44;100.00
29045;BME280;16133;49.486;12.176;2024-02-28T02:03:03;97314.44;;;4.40;100.00
29045;BME280;16133;49.486;12.176;2024-02-28T02:05:29;97317.72;;;4.42;100.00
29045;BME280;16133;49.486;12.176;2024-02-28T02:07:56;97314.97;;;4.44;100.00
29045;BME280;16133;49.486;12.176;2024-02-28T02:10:22;97320.22;;;4.44;100.00
29045;BME280;16133;49.486;12.176;2024-02-28T02:12:48;97329.19;;;4.51;100.00
29045;BME280;16133;49.486;12.176;2024-02-28T02:15:13;97328.94;;;4.44;100.00
29045;BME280;16133;49.486;12.176;2024-02-28T02:17:39;97329.06;;;4.43;100.00
29045;BME280;16133;49.486;12.176;2024-02-28T02:20:05;97329.34;;;4.40;100.00
29045;BME280;16133;49.486;12.176;2024-02-28T02:22:34;97333.78;;;4.39;100.00
29045;BME280;16133;49.486;12.176;2024-02-28T02:25:03;97343.44;;;4.39;100.00
29045;BME280;16133;49.486;12.176;2024-02-28T02:27:28;97340.53;;;4.42;100.00
29045;BME280;16133;49.486;12.176;2024-02-28T02:29:54;97344.81;;;4.43;100.00
29045;BME280;16133;49.486;12.176;2024-02-28T02:32:19;97343.69;;;4.45;100.00
29045;BME280;16133;49.486;12.176;2024-02-28T02:34:44;97357.13;;;4.42;100.00
29045;BME280;16133;49.486;12.176;2024-02-28T02:37:10;97357.28;;;4.41;100.00
29045;BME280;16133;49.486;12.176;2024-02-28T02:39:36;97357.00;;;4.44;100.00
29045;BME280;16133;49.486;12.176;2024-02-28T02:42:01;97361.38;;;4.53;100.00
29045;BME280;16133;49.486;12.176;2024-02-28T02:44:27;97363.88;;;4.45;100.00
29045;BME280;16133;49.486;12.176;2024-02-28T02:46:52;97367.50;;;4.44;100.00
29045;BME280;16133;49.486;12.176;2024-02-28T02:49:17;97365.84;;;4.43;100.00
29045;BME280;16133;49.486;12.176;2024-02-28T02:51:44;97371.09;;;4.43;100.00
29045;BME280;16133;49.486;12.176;2024-02-28T02:54:09;97378.84;;;4.44;100.00
29045;BME280;16133;49.486;12.176;2024-02-28T02:56:35;97380.47;;;4.45;100.00
29045;BME280;16133;49.486;12.176;2024-02-28T02:59:00;97375.75;;;4.49;100.00
29045;BME280;16133;49.486;12.176;2024-02-28T03:01:26;97386.00;;;4.52;100.00
29045;BME280;16133;49.486;12.176;2024-02-28T03:03:51;97385.72;;;4.45;100.00
29045;BME280;16133;49.486;12.176;2024-02-28T03:06:17;97388.34;;;4.45;100.00
29045;BME280;16133;49.486;12.176;2024-02-28T03:08:43;97402.03;;;4.49;100.00
29045;BME280;16133;49.486;12.176;2024-02-28T03:11:08;97399.88;;;4.44;100.00
29045;BME280;16133;49.486;12.176;2024-02-28T03:13:34;97395.41;;;4.45;100.00
29045;BME280;16133;49.486;12.176;2024-02-28T03:15:59;97405.91;;;4.45;100.00
29045;BME280;16133;49.486;12.176;2024-02-28T03:18:24;97411.88;;;4.47;100.00
29045;BME280;16133;49.486;12.176;2024-02-28T03:20:50;97416.00;;;4.49;100.00
29045;BME280;16133;49.486;12.176;2024-02-28T03:23:15;97422.38;;;4.47;100.00
29045;BME280;16133;49.486;12.176;2024-02-28T03:25:40;97423.06;;;4.49;100.00
29045;BME280;16133;49.486;12.176;2024-02-28T03:28:06;97429.31;;;4.48;100.00
29045;BME280;16133;49.486;12.176;2024-02-28T03:30:31;97431.94;;;4.48;100.00
29045;BME280;16133;49.486;12.176;2024-02-28T03:32:56;97425.56;;;4.50;100.00
29045;BME280;16133;49.486;12.176;2024-02-28T03:35:22;97426.94;;;4.45;100.00
29045;BME280;16133;49.486;12.176;2024-02-28T03:37:47;97425.00;;;4.47;100.00
29045;BME280;16133;49.486;12.176;2024-02-28T03:40:12;97429.44;;;4.46;100.00
29045;BME280;16133;49.486;12.176;2024-02-28T03:42:39;97432.91;;;4.47;100.00
29045;BME280;16133;49.486;12.176;2024-02-28T03:45:05;97431.22;;;4.46;100.00
29045;BME280;16133;49.486;12.176;2024-02-28T03:47:30;97433.31;;;4.52;100.00
29045;BME280;16133;49.486;12.176;2024-02-28T03:49:56;97438.28;;;4.45;100.00
29045;BME280;16133;49.486;12.176;2024-02-28T03:52:23;97439.69;;;4.40;100.00
29045;BME280;16133;49.486;12.176;2024-02-28T03:54:48;97436.22;;;4.39;100.00
29045;BME280;16133;49.486;12.176;2024-02-28T03:57:13;97441.91;;;4.44;100.00
29045;BME280;16133;49.486;12.176;2024-02-28T03:59:40;97447.41;;;4.41;100.00
29045;BME280;16133;49.486;12.176;2024-02-28T04:02:06;97443.56;;;4.36;100.00
29045;BME280;16133;49.486;12.176;2024-02-28T04:04:31;97454.34;;;4.32;100.00
29045;BME280;16133;49.486;12.176;2024-02-28T04:06:56;97449.78;;;4.34;100.00
29045;BME280;16133;49.486;12.176;2024-02-28T04:09:21;97451.84;;;4.41;100.00
29045;BME280;16133;49.486;12.176;2024-02-28T04:11:47;97447.16;;;4.34;100.00
29045;BME280;16133;49.486;12.176;2024-02-28T04:14:12;97452.81;;;4.40;100.00
29045;BME280;16133;49.486;12.176;2024-02-28T04:16:42;97446.03;;;4.37;100.00
29045;BME280;16133;49.486;12.176;2024-02-28T04:19:09;97463.19;;;4.31;100.00
29045;BME280;16133;49.486;12.176;2024-02-28T04:21:34;97459.59;;;4.32;100.00
29045;BME280;16133;49.486;12.176;2024-02-28T04:24:00;97458.91;;;4.30;100.00
29045;BME280;16133;49.486;12.176;2024-02-28T04:26:25;97463.72;;;4.25;100.00
29045;BME280;16133;49.486;12.176;2024-02-28T04:28:50;97466.78;;;4.30;100.00
29045;BME280;16133;49.486;12.176;2024-02-28T04:31:16;97472.47;;;4.16;100.00
29045;BME280;16133;49.486;12.176;2024-02-28T04:33:41;97472.59;;;4.15;100.00
29045;BME280;16133;49.486;12.176;2024-02-28T04:36:06;97471.50;;;4.17;100.00
29045;BME280;16133;49.486;12.176;2024-02-28T04:38:32;97472.19;;;4.19;100.00
29045;BME280;16133;49.486;12.176;2024-02-28T04:40:57;97475.63;;;4.20;100.00
29045;BME280;16133;49.486;12.176;2024-02-28T04:43:22;97470.38;;;4.20;100.00
29045;BME280;16133;49.486;12.176;2024-02-28T04:45:48;97476.59;;;4.28;100.00
29045;BME280;16133;49.486;12.176;2024-02-28T04:48:13;97470.38;;;4.20;100.00
29045;BME280;16133;49.486;12.176;2024-02-28T04:50:39;97471.75;;;4.24;100.00
29045;BME280;16133;49.486;12.176;2024-02-28T04:53:04;97477.56;;;4.27;100.00
29045;BME280;16133;49.486;12.176;2024-02-28T04:55:29;97469.84;;;4.16;100.00
29045;BME280;16133;49.486;12.176;2024-02-28T04:57:55;97477.00;;;4.14;100.00
29045;BME280;16133;49.486;12.176;2024-02-28T05:00:20;97473.44;;;4.25;100.00
29045;BME280;16133;49.486;12.176;2024-02-28T05:02:45;97470.53;;;4.28;100.00
29045;BME280;16133;49.486;12.176;2024-02-28T05:05:11;97471.63;;;4.16;100.00
29045;BME280;16133;49.486;12.176;2024-02-28T05:07:36;97473.00;;;4.20;100.00
29045;BME280;16133;49.486;12.176;2024-02-28T05:10:02;97476.75;;;4.17;100.00
29045;BME280;16133;49.486;12.176;2024-02-28T05:12:27;97483.63;;;4.18;100.00
29045;BME280;16133;49.486;12.176;2024-02-28T05:14:52;97475.63;;;4.29;100.00
29045;BME280;16133;49.486;12.176;2024-02-28T05:17:18;97475.91;;;4.26;100.00
29045;BME280;16133;49.486;12.176;2024-02-28T05:19:43;97483.91;;;4.15;100.00
29045;BME280;16133;49.486;12.176;2024-02-28T05:22:08;97474.53;;;4.13;100.00
29045;BME280;16133;49.486;12.176;2024-02-28T05:24:36;97474.81;;;4.19;100.00
29045;BME280;16133;49.486;12.176;2024-02-28T05:27:02;97466.91;;;4.19;100.00
29045;BME280;16133;49.486;12.176;2024-02-28T05:29:27;97466.09;;;4.09;100.00
29045;BME280;16133;49.486;12.176;2024-02-28T05:31:53;97470.66;;;4.17;100.00
29045;BME280;16133;49.486;12.176;2024-02-28T05:34:18;97470.09;;;4.23;100.00
29045;BME280;16133;49.486;12.176;2024-02-28T05:36:43;97471.75;;;4.14;100.00
29045;BME280;16133;49.486;12.176;2024-02-28T05:39:09;97472.88;;;4.21;100.00
29045;BME280;16133;49.486;12.176;2024-02-28T05:41:34;97482.69;;;4.10;100.00
29045;BME280;16133;49.486;12.176;2024-02-28T05:43:59;97484.88;;;4.14;100.00
29045;BME280;16133;49.486;12.176;2024-02-28T05:46:25;97485.16;;;4.30;100.00
29045;BME280;16133;49.486;12.176;2024-02-28T05:48:50;97485.84;;;4.23;100.00
29045;BME280;16133;49.486;12.176;2024-02-28T05:51:16;97494.16;;;4.18;100.00
29045;BME280;16133;49.486;12.176;2024-02-28T05:53:42;97498.84;;;4.05;100.00
29045;BME280;16133;49.486;12.176;2024-02-28T05:56:09;97505.88;;;4.14;100.00
29045;BME280;16133;49.486;12.176;2024-02-28T05:58:43;97507.97;;;4.11;100.00
29045;BME280;16133;49.486;12.176;2024-02-28T06:01:09;97507.13;;;4.10;100.00
29045;BME280;16133;49.486;12.176;2024-02-28T06:03:36;97514.31;;;4.18;100.00
29045;BME280;16133;49.486;12.176;2024-02-28T06:06:01;97522.63;;;4.13;100.00
29045;BME280;16133;49.486;12.176;2024-02-28T06:08:30;97518.34;;;4.12;100.00
29045;BME280;16133;49.486;12.176;2024-02-28T06:10:56;97517.22;;;4.15;100.00
29045;BME280;16133;49.486;12.176;2024-02-28T06:13:21;97519.84;;;4.05;100.00
29045;BME280;16133;49.486;12.176;2024-02-28T06:15:47;97525.38;;;4.12;100.00
29045;BME280;16133;49.486;12.176;2024-02-28T06:18:12;97531.47;;;4.22;100.00
29045;BME280;16133;49.486;12.176;2024-02-28T06:20:37;97525.13;;;4.24;100.00
29045;BME280;16133;49.486;12.176;2024-02-28T06:23:03;97532.16;;;4.14;100.00
29045;BME280;16133;49.486;12.176;2024-02-28T06:25:29;97543.06;;;4.19;100.00
29045;BME280;16133;49.486;12.176;2024-02-28T06:27:54;97549.59;;;4.25;100.00
29045;BME280;16133;49.486;12.176;2024-02-28T06:30:20;97545.16;;;4.16;100.00
29045;BME280;16133;49.486;12.176;2024-02-28T06:32:45;97555.78;;;4.14;100.00
29045;BME280;16133;49.486;12.176;2024-02-28T06:35:10;97565.75;;;4.20;100.00
29045;BME280;16133;49.486;12.176;2024-02-28T06:37:36;97568.94;;;4.24;100.00
29045;BME280;16133;49.486;12.176;2024-02-28T06:40:02;97572.41;;;4.24;100.00
29045;BME280;16133;49.486;12.176;2024-02-28T06:42:29;97577.38;;;4.27;100.00
29045;BME280;16133;49.486;12.176;2024-02-28T06:44:55;97582.34;;;4.30;100.00
29045;BME280;16133;49.486;12.176;2024-02-28T06:47:20;97587.63;;;4.40;100.00
29045;BME280;16133;49.486;12.176;2024-02-28T06:49:46;97588.47;;;4.41;100.00
29045;BME280;16133;49.486;12.176;2024-02-28T06:52:11;97592.72;;;4.42;100.00
29045;BME280;16133;49.486;12.176;2024-02-28T06:54:37;97588.84;;;4.46;100.00
29045;BME280;16133;49.486;12.176;2024-02-28T06:57:02;97603.53;;;4.48;100.00
29045;BME280;16133;49.486;12.176;2024-02-28T06:59:28;97603.25;;;4.51;100.00
29045;BME280;16133;49.486;12.176;2024-02-28T07:01:53;97609.75;;;4.47;100.00
29045;BME280;16133;49.486;12.176;2024-02-28T07:04:19;97613.63;;;4.53;100.00
29045;BME280;16133;49.486;12.176;2024-02-28T07:06:44;97611.69;;;4.55;100.00
29045;BME280;16133;49.486;12.176;2024-02-28T07:09:10;97622.34;;;4.63;100.00
29045;BME280;16133;49.486;12.176;2024-02-28T07:11:37;97627.03;;;4.69;100.00
29045;BME280;16133;49.486;12.176;2024-02-28T07:14:02;97627.31;;;4.75;100.00
29045;BME280;16133;49.486;12.176;2024-02-28T07:16:29;97627.88;;;4.69;100.00
29045;BME280;16133;49.486;12.176;2024-02-28T07:18:54;97639.34;;;4.68;100.00
29045;BME280;16133;49.486;12.176;2024-02-28T07:21:20;97638.53;;;4.68;100.00
29045;BME280;16133;49.486;12.176;2024-02-28T07:23:45;97644.91;;;4.75;100.00
29045;BME280;16133;49.486;12.176;2024-02-28T07:26:15;97648.78;;;4.80;100.00
29045;BME280;16133;49.486;12.176;2024-02-28T07:28:41;97651.41;;;4.80;100.00
29045;BME280;16133;49.486;12.176;2024-02-28T07:31:06;97650.44;;;4.81;100.00
29045;BME280;16133;49.486;12.176;2024-02-28T07:33:32;97653.50;;;4.87;100.00
29045;BME280;16133;49.486;12.176;2024-02-28T07:35:57;97652.09;;;4.92;100.00
29045;BME280;16133;49.486;12.176;2024-02-28T07:38:27;97656.94;;;4.97;100.00
29045;BME280;16133;49.486;12.176;2024-02-28T07:40:52;97657.38;;;5.02;100.00
29045;BME280;16133;49.486;12.176;2024-02-28T07:43:18;97659.31;;;5.09;100.00
29045;BME280;16133;49.486;12.176;2024-02-28T07:45:43;97659.16;;;5.20;100.00
29045;BME280;16133;49.486;12.176;2024-02-28T07:48:08;97661.78;;;5.20;100.00
29045;BME280;16133;49.486;12.176;2024-02-28T07:50:34;97658.44;;;5.28;100.00
29045;BME280;16133;49.486;12.176;2024-02-28T07:52:59;97659.28;;;5.28;100.00
29045;BME280;16133;49.486;12.176;2024-02-28T07:55:25;97659.97;;;5.30;100.00
29045;BME280;16133;49.486;12.176;2024-02-28T07:57:53;97668.56;;;5.33;100.00
29045;BME280;16133;49.486;12.176;2024-02-28T08:00:19;97663.84;;;5.36;100.00
29045;BME280;16133;49.486;12.176;2024-02-28T08:02:45;97669.66;;;5.40;100.00
29045;BME280;16133;49.486;12.176;2024-02-28T08:05:11;97672.41;;;5.48;100.00
29045;BME280;16133;49.486;12.176;2024-02-28T08:07:37;97663.81;;;5.46;100.00
29045;BME280;16133;49.486;12.176;2024-02-28T08:10:05;97663.09;;;5.53;100.00
29045;BME280;16133;49.486;12.176;2024-02-28T08:12:31;97667.66;;;5.61;100.00
29045;BME280;16133;49.486;12.176;2024-02-28T08:14:57;97656.94;;;5.72;100.00
29045;BME280;16133;49.486;12.176;2024-02-28T08:17:22;97653.31;;;5.83;100.00
29045;BME280;16133;49.486;12.176;2024-02-28T08:19:48;97669.13;;;5.92;98.85
29045;BME280;16133;49.486;12.176;2024-02-28T08:22:13;97664.25;;;5.97;97.53
29045;BME280;16133;49.486;12.176;2024-02-28T08:24:38;97668.63;;;6.06;97.18
29045;BME280;16133;49.486;12.176;2024-02-28T08:27:04;97670.91;;;6.01;97.41
29045;BME280;16133;49.486;12.176;2024-02-28T08:29:30;97671.44;;;6.05;97.43
29045;BME280;16133;49.486;12.176;2024-02-28T08:31:57;97670.94;;;6.19;96.75
29045;BME280;16133;49.486;12.176;2024-02-28T08:34:23;97670.13;;;6.18;95.96
29045;BME280;16133;49.486;12.176;2024-02-28T08:36:48;97680.91;;;6.25;96.23
29045;BME280;16133;49.486;12.176;2024-02-28T08:39:14;97670.03;;;6.38;94.14
29045;BME280;16133;49.486;12.176;2024-02-28T08:41:39;97674.94;;;6.50;93.86
29045;BME280;16133;49.486;12.176;2024-02-28T08:44:04;97667.38;;;6.65;93.51
29045;BME280;16133;49.486;12.176;2024-02-28T08:46:30;97671.91;;;6.90;92.19
29045;BME280;16133;49.486;12.176;2024-02-28T08:48:55;97677.56;;;6.95;90.25
29045;BME280;16133;49.486;12.176;2024-02-28T08:51:20;97681.84;;;6.79;90.61
29045;BME280;16133;49.486;12.176;2024-02-28T08:53:46;97688.03;;;6.87;90.44
29045;BME280;16133;49.486;12.176;2024-02-28T08:56:12;97681.03;;;6.96;89.13
29045;BME280;16133;49.486;12.176;2024-02-28T08:58:37;97680.88;;;6.80;90.15
29045;BME280;16133;49.486;12.176;2024-02-28T09:01:03;97689.75;;;6.79;90.69
29045;BME280;16133;49.486;12.176;2024-02-28T09:03:29;97690.44;;;6.98;90.21
29045;BME280;16133;49.486;12.176;2024-02-28T09:05:54;97695.09;;;6.87;90.02
29045;BME280;16133;49.486;12.176;2024-02-28T09:08:20;97692.78;;;6.84;90.30
29045;BME280;16133;49.486;12.176;2024-02-28T09:10:45;97698.56;;;6.87;90.00
29045;BME280;16133;49.486;12.176;2024-02-28T09:13:11;97699.81;;;6.93;89.69
29045;BME280;16133;49.486;12.176;2024-02-28T09:15:37;97691.38;;;6.89;89.67
29045;BME280;16133;49.486;12.176;2024-02-28T09:18:03;97699.88;;;7.01;90.03
29045;BME280;16133;49.486;12.176;2024-02-28T09:20:28;97700.41;;;7.04;88.73
29045;BME280;16133;49.486;12.176;2024-02-28T09:22:53;97705.59;;;7.14;88.42
29045;BME280;16133;49.486;12.176;2024-02-28T09:25:19;97704.31;;;7.18;89.04
29045;BME280;16133;49.486;12.176;2024-02-28T09:27:46;97715.25;;;7.23;87.54
29045;BME280;16133;49.486;12.176;2024-02-28T09:30:12;97716.53;;;7.19;88.27
29045;BME280;16133;49.486;12.176;2024-02-28T09:32:38;97715.63;;;7.10;87.66
29045;BME280;16133;49.486;12.176;2024-02-28T09:35:04;97710.34;;;7.10;88.76
29045;BME280;16133;49.486;12.176;2024-02-28T09:37:30;97718.03;;;7.21;87.42
29045;BME280;16133;49.486;12.176;2024-02-28T09:39:56;97718.97;;;7.12;87.61
29045;BME280;16133;49.486;12.176;2024-02-28T09:42:22;97714.50;;;7.13;86.78
29045;BME280;16133;49.486;12.176;2024-02-28T09:44:47;97720.16;;;7.18;86.68
29045;BME280;16133;49.486;12.176;2024-02-28T09:47:13;97723.94;;;7.15;87.42
29045;BME280;16133;49.486;12.176;2024-02-28T09:49:39;97722.28;;;7.14;86.36
29045;BME280;16133;49.486;12.176;2024-02-28T09:52:06;97724.91;;;7.14;86.43
29045;BME280;16133;49.486;12.176;2024-02-28T09:54:32;97724.69;;;7.26;85.25
29045;BME280;16133;49.486;12.176;2024-02-28T09:56:58;97728.97;;;7.27;84.60
29045;BME280;16133;49.486;12.176;2024-02-28T09:59:24;97734.50;;;7.15;85.56
29045;BME280;16133;49.486;12.176;2024-02-28T10:02:09;97735.75;;;7.11;85.35
29045;BME280;16133;49.486;12.176;2024-02-28T10:04:35;97736.22;;;7.25;85.53
29045;BME280;16133;49.486;12.176;2024-02-28T10:07:12;97740.97;;;7.39;85.07
29045;BME280;16133;49.486;12.176;2024-02-28T10:09:43;97736.88;;;7.62;83.38
29045;BME280;16133;49.486;12.176;2024-02-28T10:12:09;97731.34;;;7.73;82.03
29045;BME280;16133;49.486;12.176;2024-02-28T10:14:34;97742.50;;;7.67;81.93
29045;BME280;16133;49.486;12.176;2024-02-28T10:16:59;97746.69;;;7.52;82.93
29045;BME280;16133;49.486;12.176;2024-02-28T10:19:25;97746.47;;;7.45;82.99
29045;BME280;16133;49.486;12.176;2024-02-28T10:21:51;97749.47;;;7.33;82.54
29045;BME280;16133;49.486;12.176;2024-02-28T10:24:16;97745.13;;;7.24;83.49
29045;BME280;16133;49.486;12.176;2024-02-28T10:26:46;97741.94;;;7.38;82.97
29045;BME280;16133;49.486;12.176;2024-02-28T10:29:21;97750.84;;;7.37;83.28
29045;BME280;16133;49.486;12.176;2024-02-28T10:31:46;97750.59;;;7.48;84.77
29045;BME280;16133;49.486;12.176;2024-02-28T10:34:13;97752.09;;;7.68;82.21
29045;BME280;16133;49.486;12.176;2024-02-28T10:36:41;97757.66;;;7.83;80.88
29045;BME280;16133;49.486;12.176;2024-02-28T10:39:08;97758.34;;;7.85;81.51
29045;BME280;16133;49.486;12.176;2024-02-28T10:41:37;97759.91;;;7.95;80.26
29045;BME280;16133;49.486;12.176;2024-02-28T10:44:03;97766.91;;;8.04;81.08
29045;BME280;16133;49.486;12.176;2024-02-28T10:46:29;97756.91;;;8.16;80.83
29045;BME280;16133;49.486;12.176;2024-02-28T10:48:55;97760.75;;;8.22;80.03
29045;BME280;16133;49.486;12.176;2024-02-28T10:51:23;97759.16;;;8.29;80.34
29045;BME280;16133;49.486;12.176;2024-02-28T10:56:32;97758.88;;;8.40;78.83
29045;BME280;16133;49.486;12.176;2024-02-28T10:58:59;97765.41;;;8.53;79.06
29045;BME280;16133;49.486;12.176;2024-02-28T11:01:25;97760.38;;;8.76;78.61
29045;BME280;16133;49.486;12.176;2024-02-28T11:03:51;97759.47;;;9.01;77.68
29045;BME280;16133;49.486;12.176;2024-02-28T11:06:18;97763.34;;;9.23;76.75
29045;BME280;16133;49.486;12.176;2024-02-28T11:08:47;97767.19;;;9.45;76.73
29045;BME280;16133;49.486;12.176;2024-02-28T11:11:19;97764.22;;;9.56;76.28
29045;BME280;16133;49.486;12.176;2024-02-28T11:13:56;97768.53;;;9.65;75.86
29045;BME280;16133;49.486;12.176;2024-02-28T11:16:33;97758.91;;;9.48;74.03
29045;BME280;16133;49.486;12.176;2024-02-28T11:18:59;97778.13;;;9.50;73.84
29045;BME280;16133;49.486;12.176;2024-02-28T11:21:26;97781.75;;;9.41;74.65
29045;BME280;16133;49.486;12.176;2024-02-28T11:23:52;97780.06;;;9.32;74.69
29045;BME280;16133;49.486;12.176;2024-02-28T11:26:22;97775.06;;;9.04;74.49
29045;BME280;16133;49.486;12.176;2024-02-28T11:28:47;97766.06;;;8.97;74.21
29045;BME280;16133;49.486;12.176;2024-02-28T11:31:13;97773.06;;;9.06;75.66
29045;BME280;16133;49.486;12.176;2024-02-28T11:33:38;97766.81;;;9.16;75.50
29045;BME280;16133;49.486;12.176;2024-02-28T11:36:04;97767.47;;;9.26;74.71
29045;BME280;16133;49.486;12.176;2024-02-28T11:38:31;97765.69;;;9.34;75.08
29045;BME280;16133;49.486;12.176;2024-02-28T11:40:56;97763.53;;;9.46;74.60
29045;BME280;16133;49.486;12.176;2024-02-28T11:43:22;97756.41;;;9.54;73.77
29045;BME280;16133;49.486;12.176;2024-02-28T11:45:47;97765.38;;;9.70;73.00
29045;BME280;16133;49.486;12.176;2024-02-28T11:48:14;97771.84;;;9.83;73.78
29045;BME280;16133;49.486;12.176;2024-02-28T11:50:45;97772.66;;;9.92;72.27
29045;BME280;16133;49.486;12.176;2024-02-28T11:53:11;97777.47;;;9.96;71.98
29045;BME280;16133;49.486;12.176;2024-02-28T11:55:36;97777.63;;;9.79;71.79
29045;BME280;16133;49.486;12.176;2024-02-28T11:58:07;97776.00;;;9.70;72.29
29045;BME280;16133;49.486;12.176;2024-02-28T12:00:33;97780.59;;;9.68;72.97
29045;BME280;16133;49.486;12.176;2024-02-28T12:03:07;97776.28;;;9.67;72.28
29045;BME280;16133;49.486;12.176;2024-02-28T12:05:33;97782.75;;;9.64;73.35
29045;BME280;16133;49.486;12.176;2024-02-28T12:07:58;97790.03;;;9.54;73.08
29045;BME280;16133;49.486;12.176;2024-02-28T12:10:25;97796.63;;;9.34;74.11
29045;BME280;16133;49.486;12.176;2024-02-28T12:12:50;97787.66;;;9.19;74.35
29045;BME280;16133;49.486;12.176;2024-02-28T12:15:16;97788.94;;;9.06;74.30
29045;BME280;16133;49.486;12.176;2024-02-28T12:17:42;97783.94;;;8.95;74.63
29045;BME280;16133;49.486;12.176;2024-02-28T12:20:08;97772.38;;;8.96;75.14
29045;BME280;16133;49.486;12.176;2024-02-28T12:22:34;97775.28;;;8.77;75.94
29045;BME280;16133;49.486;12.176;2024-02-28T12:24:59;97778.44;;;8.81;76.36
29045;BME280;16133;49.486;12.176;2024-02-28T12:27:29;97781.41;;;8.86;76.24
29045;BME280;16133;49.486;12.176;2024-02-28T12:29:56;97787.91;;;8.91;75.36
29045;BME280;16133;49.486;12.176;2024-02-28T12:32:21;97789.06;;;8.89;75.31
29045;BME280;16133;49.486;12.176;2024-02-28T12:34:47;97787.84;;;8.83;75.69
29045;BME280;16133;49.486;12.176;2024-02-28T12:37:12;97775.56;;;8.74;75.31
29045;BME280;16133;49.486;12.176;2024-02-28T12:39:37;97791.63;;;8.73;74.76
29045;BME280;16133;49.486;12.176;2024-02-28T12:42:03;97792.66;;;8.80;75.48
29045;BME280;16133;49.486;12.176;2024-02-28T12:44:29;97789.19;;;8.87;75.09
29045;BME280;16133;49.486;12.176;2024-02-28T12:46:54;97783.59;;;8.90;75.20
29045;BME280;16133;49.486;12.176;2024-02-28T12:49:19;97785.56;;;8.88;75.54